createdAt,value
2024-02-24T00:01:33.108Z,0.50
2024-02-24T00:04:35.527Z,0.90
2024-02-24T00:07:38.966Z,0.80
2024-02-24T00:10:42.868Z,0.80
2024-02-24T00:13:46.362Z,0.70
2024-02-24T00:16:49.542Z,0.68
2024-02-24T00:19:51.852Z,0.70
2024-02-24T00:22:54.421Z,0.70
2024-02-24T00:25:57.951Z,0.65
2024-02-24T00:29:01.939Z,0.70
2024-02-24T00:32:04.621Z,0.60
2024-02-24T00:35:07.537Z,0.70
2024-02-24T00:38:09.897Z,0.60
2024-02-24T00:41:12.926Z,0.50
2024-02-24T00:44:16.361Z,0.60
2024-02-24T00:47:20.679Z,0.63
2024-02-24T00:50:23.784Z,0.50
2024-02-24T00:53:26.706Z,0.60
2024-02-24T00:56:29.675Z,0.60
2024-02-24T00:59:32.090Z,0.60
2024-02-24T01:02:34.868Z,0.60
2024-02-24T01:05:38.471Z,0.52
2024-02-24T01:08:41.694Z,0.63
2024-02-24T01:11:45.457Z,0.77
2024-02-24T01:14:47.967Z,0.50
2024-02-24T01:17:51.437Z,0.60
2024-02-24T01:20:54.596Z,0.60
2024-02-24T01:23:57.628Z,0.70
2024-02-24T01:27:00.091Z,0.50
2024-02-24T01:30:02.597Z,0.52
2024-02-24T01:33:05.972Z,0.70
2024-02-24T01:36:08.855Z,0.70
2024-02-24T01:39:12.196Z,0.60
2024-02-24T01:42:16.194Z,0.60
2024-02-24T01:45:19.393Z,0.55
2024-02-24T01:48:22.604Z,0.60
2024-02-24T01:51:25.758Z,0.60
2024-02-24T01:54:28.588Z,0.63
2024-02-24T01:57:32.284Z,0.60
2024-02-24T02:00:35.647Z,0.60
2024-02-24T02:03:39.217Z,0.50
2024-02-24T02:06:42.725Z,0.60
2024-02-24T02:09:46.600Z,0.50
2024-02-24T02:12:49.916Z,0.60
2024-02-24T02:15:53.281Z,0.45
2024-02-24T02:18:56.504Z,0.50
2024-02-24T02:21:59.367Z,0.52
2024-02-24T02:25:01.539Z,0.57
2024-02-24T02:28:04.319Z,0.47
2024-02-24T02:31:07.456Z,0.52
2024-02-24T02:34:09.888Z,0.80
2024-02-24T02:37:13.076Z,0.60
2024-02-24T02:40:15.669Z,0.50
2024-02-24T02:43:18.530Z,0.60
2024-02-24T02:46:21.195Z,0.55
2024-02-24T02:49:24.365Z,0.50
2024-02-24T02:52:27.258Z,0.60
2024-02-24T02:55:30.136Z,0.50
2024-02-24T02:58:32.774Z,0.52
2024-02-24T03:01:35.859Z,0.60
2024-02-24T03:04:38.089Z,0.65
2024-02-24T03:07:40.760Z,0.60
2024-02-24T03:10:44.109Z,0.65
2024-02-24T03:13:47.729Z,0.68
2024-02-24T03:16:50.378Z,0.50
2024-02-24T03:19:53.192Z,0.73
2024-02-24T03:22:56.757Z,0.47
2024-02-24T03:26:00.030Z,0.60
2024-02-24T03:29:03.146Z,0.60
2024-02-24T03:32:05.995Z,0.40
2024-02-24T03:35:08.848Z,0.60
2024-02-24T03:38:11.360Z,0.50
2024-02-24T03:41:14.626Z,0.60
2024-02-24T03:44:17.207Z,0.45
2024-02-24T03:47:20.438Z,0.50
2024-02-24T03:50:23.252Z,0.40
2024-02-24T03:53:26.425Z,0.50
2024-02-24T03:56:29.584Z,0.55
2024-02-24T03:59:32.495Z,0.50
2024-02-24T04:02:35.393Z,0.60
2024-02-24T04:05:38.695Z,0.60
2024-02-24T04:08:42.389Z,0.55
2024-02-24T04:11:45.633Z,0.60
2024-02-24T04:14:48.947Z,0.63
2024-02-24T04:17:52.283Z,0.63
2024-02-24T04:20:55.790Z,0.70
2024-02-24T04:23:58.989Z,0.60
2024-02-24T04:27:04.504Z,0.63
2024-02-24T04:30:07.213Z,0.60
2024-02-24T04:33:10.772Z,0.70
2024-02-24T04:36:14.540Z,0.50
2024-02-24T04:39:18.050Z,0.70
2024-02-24T04:42:20.681Z,0.70
2024-02-24T04:45:23.603Z,0.60
2024-02-24T04:48:27.097Z,0.75
2024-02-24T04:51:30.144Z,0.70
2024-02-24T04:54:33.310Z,0.57
2024-02-24T04:57:36.778Z,0.60
2024-02-24T05:00:40.270Z,0.60
2024-02-24T05:03:43.506Z,0.60
2024-02-24T05:06:46.586Z,0.63
2024-02-24T05:09:49.935Z,0.60
2024-02-24T05:12:53.147Z,0.47
2024-02-24T05:15:56.687Z,0.40
2024-02-24T05:18:59.419Z,0.55
2024-02-24T05:22:02.643Z,0.60
2024-02-24T05:25:05.962Z,0.60
2024-02-24T05:28:08.646Z,0.50
2024-02-24T05:31:11.829Z,0.68
2024-02-24T05:34:16.343Z,0.40
2024-02-24T05:37:18.756Z,0.63
2024-02-24T05:40:21.654Z,0.57
2024-02-24T05:43:24.783Z,0.70
2024-02-24T05:46:28.200Z,0.60
2024-02-24T05:49:31.287Z,0.60
2024-02-24T05:52:34.975Z,0.55
2024-02-24T05:55:37.376Z,0.60
2024-02-24T05:58:40.148Z,0.40
2024-02-24T06:01:42.931Z,0.50
2024-02-24T06:04:45.473Z,0.60
2024-02-24T06:07:49.407Z,0.60
2024-02-24T06:10:52.566Z,0.60
2024-02-24T06:13:55.813Z,0.60
2024-02-24T06:16:59.190Z,0.60
2024-02-24T06:20:01.823Z,0.60
2024-02-24T06:23:04.437Z,0.60
2024-02-24T06:26:06.855Z,0.70
2024-02-24T06:29:09.729Z,0.70
2024-02-24T06:32:12.675Z,0.60
2024-02-24T06:35:15.746Z,0.63
2024-02-24T06:38:18.958Z,0.70
2024-02-24T06:41:22.174Z,0.65
2024-02-24T06:44:25.550Z,0.68
2024-02-24T06:47:29.632Z,0.70
2024-02-24T06:50:33.190Z,0.50
2024-02-24T06:53:36.774Z,0.70
2024-02-24T06:56:40.124Z,0.60
2024-02-24T06:59:44.196Z,0.52
2024-02-24T07:02:48.220Z,0.50
2024-02-24T07:05:51.673Z,0.50
2024-02-24T07:08:55.106Z,0.65
2024-02-24T07:11:58.591Z,0.70
2024-02-24T07:15:01.820Z,0.70
2024-02-24T07:18:04.234Z,0.63
2024-02-24T07:21:07.094Z,0.70
2024-02-24T07:24:09.937Z,0.40
2024-02-24T07:27:12.849Z,0.80
2024-02-24T07:30:15.875Z,0.75
2024-02-24T07:33:18.662Z,0.65
2024-02-24T07:36:21.587Z,0.75
2024-02-24T07:39:24.206Z,0.50
2024-02-24T07:42:27.405Z,0.80
2024-02-24T07:45:30.759Z,0.65
2024-02-24T07:48:33.676Z,0.70
2024-02-24T07:51:36.753Z,0.60
2024-02-24T07:54:39.018Z,0.70
2024-02-24T07:57:41.430Z,0.55
2024-02-24T08:00:49.959Z,0.70
2024-02-24T08:03:54.439Z,0.63
2024-02-24T08:06:57.769Z,0.60
2024-02-24T08:10:01.178Z,0.70
2024-02-24T08:13:04.632Z,0.70
2024-02-24T08:16:07.733Z,0.68
2024-02-24T08:19:11.029Z,0.82
2024-02-24T08:22:14.109Z,0.68
2024-02-24T08:25:17.385Z,0.50
2024-02-24T08:28:20.860Z,0.80
2024-02-24T08:31:24.718Z,0.80
2024-02-24T08:34:28.181Z,0.70
2024-02-24T08:37:31.734Z,0.60
2024-02-24T08:40:34.864Z,0.70
2024-02-24T08:43:37.169Z,0.68
2024-02-24T08:46:40.382Z,0.80
2024-02-24T08:49:43.536Z,0.60
2024-02-24T08:52:50.446Z,0.65
2024-02-24T08:55:53.899Z,0.65
2024-02-24T08:58:57.453Z,0.80
2024-02-24T09:02:01.407Z,0.63
2024-02-24T09:05:04.510Z,0.70
2024-02-24T09:08:08.347Z,0.73
2024-02-24T09:11:10.963Z,0.70
2024-02-24T09:14:13.976Z,0.80
2024-02-24T09:17:16.998Z,0.70
2024-02-24T09:20:19.831Z,0.90
2024-02-24T09:23:22.178Z,0.68
2024-02-24T09:26:25.028Z,0.80
2024-02-24T09:29:28.430Z,0.70
2024-02-24T09:32:32.551Z,0.68
2024-02-24T09:35:36.223Z,0.80
2024-02-24T09:38:39.247Z,0.70
2024-02-24T09:41:42.355Z,1.00
2024-02-24T09:44:45.376Z,0.70
2024-02-24T09:47:48.678Z,0.70
2024-02-24T09:50:52.673Z,0.70
2024-02-24T09:53:55.907Z,0.60
2024-02-24T09:56:58.314Z,0.70
2024-02-24T10:00:01.573Z,0.70
2024-02-24T10:03:14.765Z,0.60
2024-02-24T10:06:18.755Z,0.57
2024-02-24T10:09:21.421Z,0.50
2024-02-24T10:12:23.819Z,0.50
2024-02-24T10:15:26.924Z,0.60
2024-02-24T10:18:30.105Z,0.50
2024-02-24T10:21:32.470Z,0.50
2024-02-24T10:24:35.667Z,0.57
2024-02-24T10:27:39.221Z,0.60
2024-02-24T10:30:42.389Z,0.70
2024-02-24T10:33:45.716Z,0.63
2024-02-24T10:36:48.368Z,0.60
2024-02-24T10:39:51.197Z,0.63
2024-02-24T10:42:53.989Z,0.70
2024-02-24T10:45:56.375Z,0.73
2024-02-24T10:48:58.833Z,0.90
2024-02-24T10:52:02.034Z,0.80
2024-02-24T10:55:04.456Z,0.75
2024-02-24T10:58:07.259Z,0.80
2024-02-24T11:01:11.203Z,0.80
2024-02-24T11:04:13.992Z,0.85
2024-02-24T11:07:17.564Z,0.85
2024-02-24T11:10:21.676Z,0.80
2024-02-24T11:13:24.740Z,0.90
2024-02-24T11:16:27.508Z,1.02
2024-02-24T11:19:30.643Z,0.70
2024-02-24T11:22:32.976Z,1.10
2024-02-24T11:25:36.053Z,0.90
2024-02-24T11:28:39.156Z,1.10
2024-02-24T11:31:41.880Z,0.93
2024-02-24T11:34:45.263Z,1.00
2024-02-24T11:37:48.669Z,0.90
2024-02-24T11:40:51.551Z,0.98
2024-02-24T11:43:54.516Z,1.08
2024-02-24T11:46:58.127Z,1.13
2024-02-24T11:50:02.060Z,1.00
2024-02-24T11:53:05.263Z,1.10
2024-02-24T11:56:08.310Z,0.85
2024-02-24T11:59:11.070Z,1.20
2024-02-24T12:02:14.264Z,1.02
2024-02-24T12:05:17.021Z,1.00
2024-02-24T12:08:19.547Z,1.00
2024-02-24T12:11:22.497Z,0.80
2024-02-24T12:14:26.363Z,0.93
2024-02-24T12:17:29.638Z,1.10
2024-02-24T12:20:33.918Z,0.90
2024-02-24T12:23:37.529Z,0.95
2024-02-24T12:26:41.031Z,1.00
2024-02-24T12:29:45.134Z,0.95
2024-02-24T12:32:48.845Z,1.00
2024-02-24T12:35:51.338Z,0.95
2024-02-24T12:38:54.167Z,1.10
2024-02-24T12:41:57.936Z,1.00
2024-02-24T12:45:02.128Z,0.90
2024-02-24T12:48:05.862Z,0.88
2024-02-24T12:51:09.179Z,0.88
2024-02-24T12:54:12.368Z,0.70
2024-02-24T12:57:15.188Z,0.80
2024-02-24T13:00:17.843Z,0.77
2024-02-24T13:03:21.020Z,0.80
2024-02-24T13:06:23.779Z,0.82
2024-02-24T13:09:26.989Z,0.75
2024-02-24T13:12:29.999Z,0.80
2024-02-24T13:15:32.989Z,1.00
2024-02-24T13:18:36.164Z,0.70
2024-02-24T13:21:39.391Z,0.85
2024-02-24T13:24:42.148Z,1.00
2024-02-24T13:27:44.941Z,0.77
2024-02-24T13:30:47.405Z,0.85
2024-02-24T13:33:50.413Z,0.80
2024-02-24T13:36:52.993Z,1.00
2024-02-24T13:39:55.836Z,0.70
2024-02-24T13:42:58.987Z,0.80
2024-02-24T13:46:02.632Z,0.75
2024-02-24T13:49:05.893Z,0.77
2024-02-24T13:52:08.717Z,0.80
2024-02-24T13:55:11.882Z,0.80
2024-02-24T13:58:14.552Z,0.80
2024-02-24T14:01:17.945Z,0.88
2024-02-24T14:04:21.345Z,0.82
2024-02-24T14:07:24.710Z,0.75
2024-02-24T14:10:28.227Z,1.00
2024-02-24T14:13:32.221Z,0.80
2024-02-24T14:16:35.366Z,0.77
2024-02-24T14:19:37.693Z,0.60
2024-02-24T14:22:40.624Z,1.00
2024-02-24T14:25:43.716Z,1.00
2024-02-24T14:28:50.406Z,0.80
2024-02-24T14:31:58.108Z,1.02
2024-02-24T14:35:01.005Z,0.85
2024-02-24T14:38:03.529Z,1.00
2024-02-24T14:41:06.644Z,1.10
2024-02-24T14:44:10.240Z,0.85
2024-02-24T14:47:13.263Z,0.98
2024-02-24T14:50:16.090Z,0.82
2024-02-24T14:53:19.413Z,0.98
2024-02-24T14:56:22.721Z,0.77
2024-02-24T14:59:26.096Z,0.70
2024-02-24T15:02:40.529Z,0.70
2024-02-24T15:05:52.095Z,1.00
2024-02-24T15:08:55.434Z,0.70
2024-02-24T15:11:58.735Z,0.80
2024-02-24T15:15:01.277Z,0.70
2024-02-24T15:18:04.824Z,0.70
2024-02-24T15:21:08.137Z,0.88
2024-02-24T15:24:10.798Z,0.80
2024-02-24T15:27:13.682Z,0.80
2024-02-24T15:30:16.790Z,0.50
2024-02-24T15:33:20.024Z,0.60
2024-02-24T15:36:23.402Z,0.52
2024-02-24T15:39:26.491Z,0.65
2024-02-24T15:42:29.609Z,0.70
2024-02-24T15:45:33.083Z,0.75
2024-02-24T15:48:36.905Z,0.70
2024-02-24T15:51:39.402Z,0.70
2024-02-24T15:54:42.267Z,0.88
2024-02-24T15:57:44.998Z,0.90
2024-02-24T16:00:47.925Z,0.90
2024-02-24T16:03:50.250Z,0.75
2024-02-24T16:06:53.569Z,0.70
2024-02-24T16:09:57.013Z,0.60
2024-02-24T16:13:00.096Z,0.80
2024-02-24T16:16:03.278Z,0.80
2024-02-24T16:19:07.192Z,0.80
2024-02-24T16:22:11.166Z,0.68
2024-02-24T16:25:13.689Z,0.68
2024-02-24T16:28:15.945Z,0.82
2024-02-24T16:31:18.576Z,0.85
2024-02-24T16:34:21.628Z,0.80
2024-02-24T16:37:25.093Z,0.80
2024-02-24T16:40:27.948Z,0.70
2024-02-24T16:43:31.246Z,0.80
2024-02-24T16:46:34.765Z,1.00
2024-02-24T16:49:38.486Z,0.80
2024-02-24T16:52:41.098Z,0.80
2024-02-24T16:55:44.208Z,0.85
2024-02-24T16:58:46.278Z,0.70
2024-02-24T17:01:48.813Z,0.77
2024-02-24T17:04:52.260Z,0.88
2024-02-24T17:07:55.375Z,0.60
2024-02-24T17:10:58.538Z,0.70
2024-02-24T17:14:02.332Z,0.77
2024-02-24T17:17:04.961Z,0.70
2024-02-24T17:20:07.329Z,0.90
2024-02-24T17:23:10.968Z,1.00
2024-02-24T17:26:14.203Z,0.80
2024-02-24T17:29:17.392Z,0.85
2024-02-24T17:32:20.463Z,0.90
2024-02-24T17:35:24.022Z,0.90
2024-02-24T17:38:27.479Z,0.77
2024-02-24T17:41:31.225Z,0.73
2024-02-24T17:44:33.984Z,0.63
2024-02-24T17:47:36.577Z,0.70
2024-02-24T17:50:39.760Z,0.60
2024-02-24T17:53:42.654Z,0.77
2024-02-24T17:56:45.943Z,0.63
2024-02-24T17:59:49.330Z,0.70
2024-02-24T18:02:52.545Z,0.90
2024-02-24T18:05:55.855Z,0.75
2024-02-24T18:08:59.939Z,0.80
2024-02-24T18:12:03.754Z,0.70
2024-02-24T18:15:07.482Z,0.73
2024-02-24T18:18:10.286Z,0.70
2024-02-24T18:21:12.732Z,0.90
2024-02-24T18:24:15.380Z,0.60
2024-02-24T18:27:18.793Z,0.75
2024-02-24T18:30:22.338Z,0.90
2024-02-24T18:33:26.395Z,0.88
2024-02-24T18:36:30.100Z,1.10
2024-02-24T18:39:33.319Z,0.90
2024-02-24T18:42:36.496Z,0.95
2024-02-24T18:45:39.805Z,0.90
2024-02-24T18:48:43.324Z,0.98
2024-02-24T18:51:46.258Z,1.02
2024-02-24T18:54:49.230Z,1.02
2024-02-24T18:57:51.369Z,1.00
2024-02-24T19:00:54.245Z,1.15
2024-02-24T19:03:58.060Z,0.80
2024-02-24T19:07:00.646Z,1.00
2024-02-24T19:10:04.193Z,0.98
2024-02-24T19:13:07.261Z,0.80
2024-02-24T19:16:10.047Z,0.95
2024-02-24T19:19:12.487Z,0.80
2024-02-24T19:22:15.759Z,0.60
2024-02-24T19:25:18.618Z,0.80
2024-02-24T19:28:21.510Z,0.98
2024-02-24T19:31:25.818Z,0.80
2024-02-24T19:34:29.140Z,1.00
2024-02-24T19:37:32.249Z,0.90
2024-02-24T19:40:35.102Z,0.80
2024-02-24T19:43:37.570Z,0.90
2024-02-24T19:46:40.428Z,0.90
2024-02-24T19:49:43.677Z,0.82
2024-02-24T19:52:46.459Z,0.70
2024-02-24T19:55:49.979Z,0.80
2024-02-24T19:58:56.363Z,0.80
2024-02-24T20:01:59.324Z,0.93
2024-02-24T20:05:01.951Z,0.98
2024-02-24T20:08:05.514Z,0.90
2024-02-24T20:11:08.701Z,0.82
2024-02-24T20:14:10.943Z,0.90
2024-02-24T20:17:13.623Z,1.02
2024-02-24T20:20:16.177Z,0.90
2024-02-24T20:23:18.390Z,0.90
2024-02-24T20:26:20.885Z,1.08
2024-02-24T20:29:23.136Z,1.00
2024-02-24T20:32:25.974Z,0.80
2024-02-24T20:35:29.749Z,0.77
2024-02-24T20:38:33.300Z,1.00
2024-02-24T20:41:36.355Z,0.80
2024-02-24T20:44:38.749Z,0.90
2024-02-24T20:47:41.873Z,0.93
2024-02-24T20:50:44.670Z,1.00
2024-02-24T20:53:47.851Z,0.90
2024-02-24T20:56:50.598Z,0.70
2024-02-24T20:59:53.129Z,0.93
2024-02-24T21:02:55.665Z,0.80
2024-02-24T21:05:58.341Z,0.70
2024-02-24T21:09:00.927Z,0.90
2024-02-24T21:12:03.982Z,0.90
2024-02-24T21:15:07.424Z,0.90
2024-02-24T21:18:09.849Z,0.65
2024-02-24T21:21:12.688Z,0.80
2024-02-24T21:24:15.740Z,0.80
2024-02-24T21:27:18.425Z,0.70
2024-02-24T21:30:21.738Z,0.70
2024-02-24T21:33:24.712Z,0.95
2024-02-24T21:36:27.802Z,0.70
2024-02-24T21:39:30.861Z,0.80
2024-02-24T21:42:33.500Z,1.02
2024-02-24T21:45:36.062Z,1.00
2024-02-24T21:48:38.566Z,0.95
2024-02-24T21:51:41.844Z,0.85
2024-02-24T21:54:44.286Z,0.80
2024-02-24T21:57:46.830Z,0.70
2024-02-24T22:00:50.398Z,0.80
2024-02-24T22:03:54.207Z,1.00
2024-02-24T22:06:57.586Z,0.90
2024-02-24T22:10:01.221Z,0.90
2024-02-24T22:13:03.589Z,0.98
2024-02-24T22:16:06.148Z,0.80
2024-02-24T22:19:08.685Z,0.80
2024-02-24T22:22:11.153Z,0.77
2024-02-24T22:25:13.916Z,0.75
2024-02-24T22:28:16.994Z,0.77
2024-02-24T22:31:19.725Z,0.93
2024-02-24T22:34:22.801Z,0.85
2024-02-24T22:37:25.715Z,1.02
2024-02-24T22:40:28.275Z,1.02
2024-02-24T22:43:31.002Z,0.85
2024-02-24T22:46:34.610Z,1.00
2024-02-24T22:49:37.691Z,0.80
2024-02-24T22:52:40.062Z,0.60
2024-02-24T22:55:42.423Z,0.80
2024-02-24T22:58:45.262Z,0.70
2024-02-24T23:01:48.403Z,0.60
2024-02-24T23:04:51.535Z,0.60
2024-02-24T23:07:55.094Z,0.75
2024-02-24T23:10:58.150Z,0.70
2024-02-24T23:14:01.742Z,0.80
2024-02-24T23:17:05.241Z,0.70
2024-02-24T23:20:08.322Z,0.85
2024-02-24T23:23:11.498Z,0.80
2024-02-24T23:26:14.579Z,0.82
2024-02-24T23:29:17.404Z,0.70
2024-02-24T23:32:20.467Z,0.73
2024-02-24T23:35:23.381Z,0.73
2024-02-24T23:38:26.817Z,0.70
2024-02-24T23:41:30.449Z,0.80
2024-02-24T23:44:32.775Z,0.60
2024-02-24T23:47:35.659Z,0.75
2024-02-24T23:50:38.622Z,0.90
2024-02-24T23:53:41.677Z,0.65
2024-02-24T23:56:44.402Z,0.70
2024-02-24T23:59:47.429Z,0.90
